createdAt,value
2018-05-24T00:02:05.779Z,57.50
2018-05-24T00:04:33.259Z,57.40
2018-05-24T00:07:00.723Z,57.20
2018-05-24T00:09:28.283Z,57.10
2018-05-24T00:11:55.841Z,56.90
2018-05-24T00:14:24.122Z,56.50
2018-05-24T00:16:52.367Z,56.50
2018-05-24T00:19:19.853Z,56.50
2018-05-24T00:21:47.525Z,56.60
2018-05-24T00:24:15.063Z,56.50
2018-05-24T00:26:42.565Z,56.30
2018-05-24T00:29:10.810Z,56.20
2018-05-24T00:31:38.379Z,56.20
2018-05-24T00:34:05.892Z,56.30
2018-05-24T00:36:33.403Z,56.30
2018-05-24T00:39:01.674Z,56.30
2018-05-24T00:41:29.173Z,56.20
2018-05-24T00:43:56.676Z,56.30
2018-05-24T00:46:24.939Z,56.10
2018-05-24T00:48:52.419Z,56.10
2018-05-24T00:51:19.909Z,56.10
2018-05-24T00:53:48.164Z,56.20
2018-05-24T00:56:15.648Z,56.10
2018-05-24T00:58:43.879Z,56.20
2018-05-24T01:01:11.464Z,56.20
2018-05-24T01:03:38.946Z,56.20
2018-05-24T01:06:07.298Z,56.20
2018-05-24T01:08:34.776Z,56.20
2018-05-24T01:11:03.047Z,56.30
2018-05-24T01:13:31.281Z,56.50
2018-05-24T01:15:58.778Z,56.30
2018-05-24T01:18:26.265Z,56.30
2018-05-24T01:20:53.769Z,56.30
2018-05-24T01:23:21.236Z,56.30
2018-05-24T01:25:48.735Z,56.40
2018-05-24T01:28:16.990Z,56.50
2018-05-24T01:30:44.471Z,56.40
2018-05-24T01:33:12.718Z,56.70
2018-05-24T01:35:40.960Z,56.70
2018-05-24T01:38:08.430Z,56.70
2018-05-24T01:40:35.938Z,56.80
2018-05-24T01:43:04.597Z,57.10
2018-05-24T01:45:32.904Z,57.20
2018-05-24T01:48:01.159Z,57.40
2018-05-24T01:50:28.657Z,57.30
2018-05-24T01:52:57.020Z,57.40
2018-05-24T01:55:25.270Z,57.60
2018-05-24T01:57:54.259Z,57.70
2018-05-24T02:00:21.752Z,57.70
2018-05-24T02:02:50.007Z,58.00
2018-05-24T02:05:18.251Z,58.10
2018-05-24T02:07:45.738Z,58.20
2018-05-24T02:10:13.225Z,58.30
2018-05-24T02:12:41.486Z,58.50
2018-05-24T02:15:09.043Z,58.50
2018-05-24T02:17:36.519Z,58.70
2018-05-24T02:20:04.747Z,58.80
2018-05-24T02:22:32.269Z,58.70
2018-05-24T02:24:59.756Z,59.00
2018-05-24T02:27:27.264Z,59.00
2018-05-24T02:29:54.832Z,59.10
2018-05-24T02:32:23.093Z,59.40
2018-05-24T02:34:50.563Z,59.30
2018-05-24T02:37:18.049Z,59.40
2018-05-24T02:39:45.617Z,59.50
2018-05-24T02:42:13.135Z,59.70
2018-05-24T02:44:40.616Z,59.80
2018-05-24T02:47:08.948Z,59.80
2018-05-24T02:49:36.445Z,59.80
2018-05-24T02:52:04.720Z,59.80
2018-05-24T02:54:32.972Z,60.30
2018-05-24T02:57:00.499Z,59.80
2018-05-24T02:59:27.990Z,59.70
2018-05-24T03:01:55.469Z,59.80
2018-05-24T03:04:22.927Z,59.80
2018-05-24T03:06:50.409Z,60.00
2018-05-24T03:09:18.672Z,59.90
2018-05-24T03:11:46.236Z,59.90
2018-05-24T03:14:14.589Z,60.70
2018-05-24T03:16:41.968Z,60.00
2018-05-24T03:19:10.246Z,60.30
2018-05-24T03:21:38.493Z,60.70
2018-05-24T03:24:05.978Z,59.90
2018-05-24T03:26:33.456Z,60.60
2018-05-24T03:29:01.703Z,59.80
2018-05-24T03:31:29.180Z,59.70
2018-05-24T03:33:56.756Z,59.80
2018-05-24T03:36:25.046Z,60.00
2018-05-24T03:38:52.542Z,59.90
2018-05-24T03:41:20.049Z,60.10
2018-05-24T03:43:48.297Z,60.20
2018-05-24T03:46:15.884Z,60.10
2018-05-24T03:48:44.140Z,60.40
2018-05-24T03:51:12.398Z,60.40
2018-05-24T03:53:39.892Z,60.40
2018-05-24T03:56:08.150Z,59.80
2018-05-24T03:58:37.136Z,60.30
2018-05-24T04:01:16.496Z,60.40
2018-05-24T04:03:49.780Z,60.40
2018-05-24T04:06:18.034Z,60.30
2018-05-24T04:08:45.530Z,60.30
2018-05-24T04:11:13.789Z,60.20
2018-05-24T04:13:41.363Z,60.40
2018-05-24T04:16:08.938Z,60.40
2018-05-24T04:18:37.201Z,60.10
2018-05-24T04:21:04.696Z,60.10
2018-05-24T04:23:32.233Z,60.10
2018-05-24T04:26:00.489Z,59.80
2018-05-24T04:28:28.755Z,59.90
2018-05-24T04:30:56.361Z,59.90
2018-05-24T04:33:24.597Z,59.80
2018-05-24T04:35:52.201Z,59.80
2018-05-24T04:38:19.729Z,59.70
2018-05-24T04:40:47.268Z,59.80
2018-05-24T04:43:15.514Z,59.80
2018-05-24T04:45:43.059Z,59.70
2018-05-24T04:48:11.302Z,59.80
2018-05-24T04:50:38.886Z,59.70
2018-05-24T04:53:07.177Z,59.60
2018-05-24T04:55:34.680Z,59.50
2018-05-24T04:58:02.171Z,59.70
2018-05-24T05:00:30.445Z,59.90
2018-05-24T05:02:57.937Z,59.60
2018-05-24T05:05:25.455Z,59.50
2018-05-24T05:07:52.932Z,59.40
2018-05-24T05:10:20.440Z,59.40
2018-05-24T05:12:48.063Z,59.10
2018-05-24T05:15:15.515Z,58.60
2018-05-24T05:17:43.811Z,58.70
2018-05-24T05:20:12.129Z,58.30
2018-05-24T05:22:39.620Z,58.30
2018-05-24T05:25:07.123Z,57.80
2018-05-24T05:27:34.602Z,57.70
2018-05-24T05:30:02.150Z,57.70
2018-05-24T05:32:29.672Z,57.80
2018-05-24T05:34:57.995Z,57.70
2018-05-24T05:37:25.472Z,57.60
2018-05-24T05:39:52.974Z,57.70
2018-05-24T05:42:21.403Z,57.00
2018-05-24T05:44:48.913Z,57.00
2018-05-24T05:47:17.184Z,57.10
2018-05-24T05:49:45.476Z,56.90
2018-05-24T05:52:13.753Z,55.90
2018-05-24T05:54:42.049Z,55.70
2018-05-24T05:57:09.564Z,55.60
2018-05-24T05:59:37.077Z,56.40
2018-05-24T06:02:04.572Z,56.60
2018-05-24T06:04:32.064Z,55.70
2018-05-24T06:07:00.313Z,55.70
2018-05-24T06:09:27.816Z,55.60
2018-05-24T06:11:56.182Z,55.80
2018-05-24T06:14:24.423Z,55.60
2018-05-24T06:16:52.014Z,55.60
2018-05-24T06:19:20.243Z,55.40
2018-05-24T06:21:47.905Z,55.40
2018-05-24T06:24:15.384Z,55.60
2018-05-24T06:26:42.867Z,55.70
2018-05-24T06:29:10.341Z,55.20
2018-05-24T06:31:38.609Z,54.80
2018-05-24T06:34:06.120Z,54.80
2018-05-24T06:36:33.619Z,54.40
2018-05-24T06:39:01.105Z,54.30
2018-05-24T06:41:29.343Z,53.80
2018-05-24T06:43:56.940Z,53.80
2018-05-24T06:46:25.182Z,53.30
2018-05-24T06:48:52.670Z,53.30
2018-05-24T06:51:20.940Z,54.30
2018-05-24T06:53:48.443Z,54.20
2018-05-24T06:56:15.915Z,54.40
2018-05-24T06:58:43.433Z,54.30
2018-05-24T07:01:11.724Z,54.80
2018-05-24T07:03:39.238Z,54.70
2018-05-24T07:06:06.708Z,54.40
2018-05-24T07:08:34.199Z,54.40
2018-05-24T07:11:02.586Z,53.70
2018-05-24T07:13:30.083Z,54.30
2018-05-24T07:15:57.566Z,53.40
2018-05-24T07:18:25.170Z,52.70
2018-05-24T07:20:52.643Z,52.70
2018-05-24T07:23:20.149Z,52.60
2018-05-24T07:25:47.622Z,52.50
2018-05-24T07:28:15.876Z,50.90
2018-05-24T07:30:43.350Z,50.90
2018-05-24T07:33:10.914Z,50.40
2018-05-24T07:35:39.165Z,50.40
2018-05-24T07:38:06.668Z,50.40
2018-05-24T07:40:34.925Z,48.30
2018-05-24T07:43:02.533Z,48.30
2018-05-24T07:45:30.083Z,47.80
2018-05-24T07:47:57.597Z,47.70
2018-05-24T07:50:25.851Z,44.10
2018-05-24T07:52:53.389Z,44.10
2018-05-24T07:55:20.863Z,42.90
2018-05-24T07:57:48.396Z,43.10
2018-05-24T08:00:15.920Z,43.80
2018-05-24T08:02:43.484Z,45.00
2018-05-24T08:05:10.953Z,45.60
2018-05-24T08:07:39.209Z,46.90
2018-05-24T08:10:06.697Z,46.80
2018-05-24T08:12:34.951Z,47.80
2018-05-24T08:15:02.446Z,47.80
2018-05-24T08:17:29.977Z,48.30
2018-05-24T08:19:57.482Z,48.70
2018-05-24T08:22:24.994Z,47.70
2018-05-24T08:24:52.510Z,47.30
2018-05-24T08:27:20.038Z,47.20
2018-05-24T08:29:48.291Z,46.90
2018-05-24T08:32:16.547Z,46.30
2018-05-24T08:34:44.152Z,46.30
2018-05-24T08:37:12.415Z,44.70
2018-05-24T08:39:40.676Z,45.50
2018-05-24T08:42:08.154Z,45.00
2018-05-24T08:44:36.432Z,44.10
2018-05-24T08:47:04.711Z,44.40
2018-05-24T08:49:32.961Z,43.90
2018-05-24T08:52:00.591Z,43.90
2018-05-24T08:54:28.078Z,43.90
2018-05-24T08:56:55.558Z,42.90
2018-05-24T08:59:23.038Z,43.20
2018-05-24T09:01:51.288Z,43.40
2018-05-24T09:04:18.863Z,43.30
2018-05-24T09:06:47.167Z,43.30
2018-05-24T09:09:14.705Z,42.60
2018-05-24T09:11:43.498Z,42.80
2018-05-24T09:14:11.777Z,42.30
2018-05-24T09:16:40.109Z,42.30
2018-05-24T09:19:08.354Z,43.00
2018-05-24T09:21:35.829Z,42.50
2018-05-24T09:24:03.350Z,42.30
2018-05-24T09:26:31.605Z,41.00
2018-05-24T09:28:59.183Z,40.90
2018-05-24T09:31:26.654Z,40.70
2018-05-24T09:33:54.889Z,40.30
2018-05-24T09:36:22.564Z,40.20
2018-05-24T09:38:49.897Z,38.70
2018-05-24T09:41:17.407Z,39.50
2018-05-24T09:43:45.656Z,37.70
2018-05-24T09:46:13.138Z,37.60
2018-05-24T09:48:41.384Z,37.10
2018-05-24T09:51:08.864Z,37.10
2018-05-24T09:53:36.351Z,37.70
2018-05-24T09:56:04.599Z,37.60
2018-05-24T09:58:32.088Z,37.50
2018-05-24T10:01:00.339Z,37.90
2018-05-24T10:03:28.646Z,38.00
2018-05-24T10:05:56.145Z,37.50
2018-05-24T10:08:23.617Z,37.90
2018-05-24T10:10:51.107Z,38.50
2018-05-24T10:13:19.379Z,39.00
2018-05-24T10:15:47.660Z,38.60
2018-05-24T10:18:15.930Z,38.10
2018-05-24T10:20:43.487Z,38.10
2018-05-24T10:23:11.785Z,37.90
2018-05-24T10:25:40.052Z,37.70
2018-05-24T10:28:08.309Z,37.20
2018-05-24T10:30:35.794Z,37.10
2018-05-24T10:33:04.074Z,36.80
2018-05-24T10:35:32.336Z,35.80
2018-05-24T10:37:59.900Z,36.50
2018-05-24T10:40:28.168Z,35.40
2018-05-24T10:42:55.662Z,35.40
2018-05-24T10:45:23.151Z,35.40
2018-05-24T10:47:50.659Z,36.10
2018-05-24T10:50:18.906Z,35.40
2018-05-24T10:52:46.412Z,35.40
2018-05-24T10:55:14.667Z,35.90
2018-05-24T10:57:42.243Z,36.00
2018-05-24T11:00:10.539Z,36.90
2018-05-24T11:02:38.823Z,36.40
2018-05-24T11:05:06.307Z,36.30
2018-05-24T11:07:33.799Z,36.30
2018-05-24T11:10:02.038Z,36.40
2018-05-24T11:12:29.528Z,36.40
2018-05-24T11:14:57.038Z,36.40
2018-05-24T11:17:24.886Z,36.40
2018-05-24T11:19:52.372Z,36.60
2018-05-24T11:22:19.850Z,37.10
2018-05-24T11:24:47.351Z,37.30
2018-05-24T11:27:15.605Z,37.50
2018-05-24T11:29:43.075Z,36.80
2018-05-24T11:32:10.705Z,37.10
2018-05-24T11:34:38.902Z,34.70
2018-05-24T11:37:06.588Z,34.60
2018-05-24T11:39:34.771Z,36.00
2018-05-24T11:42:03.024Z,34.60
2018-05-24T11:44:30.603Z,34.50
2018-05-24T11:46:58.878Z,34.50
2018-05-24T11:49:27.855Z,34.10
2018-05-24T11:51:55.394Z,34.10
2018-05-24T11:54:22.918Z,34.00
2018-05-24T11:56:50.381Z,33.80
2018-05-24T11:59:17.862Z,33.80
2018-05-24T12:01:45.364Z,33.80
2018-05-24T12:04:12.923Z,33.50
2018-05-24T12:06:40.382Z,33.40
2018-05-24T12:09:08.653Z,34.40
2018-05-24T12:11:37.631Z,34.40
2018-05-24T12:14:05.103Z,34.30
2018-05-24T12:16:32.584Z,33.30
2018-05-24T12:19:00.849Z,33.20
2018-05-24T12:21:28.337Z,33.10
2018-05-24T12:23:56.702Z,32.60
2018-05-24T12:26:24.975Z,32.60
2018-05-24T12:28:53.248Z,32.20
2018-05-24T12:31:20.705Z,31.80
2018-05-24T12:33:48.185Z,32.50
2018-05-24T12:36:16.415Z,31.70
2018-05-24T12:38:43.904Z,31.60
2018-05-24T12:41:12.175Z,31.20
2018-05-24T12:43:39.662Z,30.50
2018-05-24T12:46:07.926Z,29.30
2018-05-24T12:48:36.231Z,29.40
2018-05-24T12:51:03.720Z,29.40
2018-05-24T12:53:31.218Z,30.20
2018-05-24T12:55:58.698Z,30.60
2018-05-24T12:58:26.952Z,30.80
2018-05-24T13:00:55.214Z,30.20
2018-05-24T13:03:22.695Z,30.20
2018-05-24T13:05:50.974Z,30.00
2018-05-24T13:08:19.218Z,30.80
2018-05-24T13:10:46.684Z,30.80
2018-05-24T13:13:14.260Z,31.10
2018-05-24T13:15:41.734Z,31.10
2018-05-24T13:18:09.995Z,30.40
2018-05-24T13:20:37.485Z,30.40
2018-05-24T13:23:05.122Z,30.10
2018-05-24T13:25:32.614Z,30.30
2018-05-24T13:28:00.090Z,31.10
2018-05-24T13:30:27.588Z,30.60
2018-05-24T13:32:55.169Z,30.10
2018-05-24T13:35:23.426Z,30.70
2018-05-24T13:40:25.020Z,30.40
2018-05-24T13:42:53.186Z,31.60
2018-05-24T13:45:20.748Z,31.50
2018-05-24T13:47:48.927Z,31.60
2018-05-24T13:50:16.405Z,30.90
2018-05-24T13:52:44.713Z,30.10
2018-05-24T13:55:12.169Z,30.00
2018-05-24T13:57:45.054Z,30.60
2018-05-24T14:00:12.539Z,30.20
2018-05-24T14:02:40.023Z,30.00
2018-05-24T14:05:07.617Z,30.00
2018-05-24T14:07:35.104Z,30.10
2018-05-24T14:10:02.587Z,29.80
2018-05-24T14:12:30.066Z,30.00
2018-05-24T14:14:58.386Z,30.40
2018-05-24T14:17:25.884Z,30.10
2018-05-24T14:19:53.369Z,30.40
2018-05-24T14:22:21.631Z,30.00
2018-05-24T14:24:49.242Z,29.90
2018-05-24T14:27:16.758Z,29.70
2018-05-24T14:29:44.317Z,29.80
2018-05-24T14:32:11.805Z,30.00
2018-05-24T14:34:39.338Z,30.30
2018-05-24T14:37:06.826Z,30.20
2018-05-24T14:42:09.191Z,30.00
2018-05-24T14:44:36.658Z,30.30
2018-05-24T14:47:04.218Z,30.00
2018-05-24T14:49:32.458Z,30.60
2018-05-24T14:51:59.976Z,29.90
2018-05-24T14:54:28.234Z,30.40
2018-05-24T14:56:55.783Z,30.30
2018-05-24T14:59:23.254Z,30.40
2018-05-24T15:01:51.529Z,29.80
2018-05-24T15:04:19.091Z,29.80
2018-05-24T15:06:46.576Z,30.40
2018-05-24T15:09:14.049Z,30.60
2018-05-24T15:11:41.551Z,30.30
2018-05-24T15:14:09.136Z,30.00
2018-05-24T15:16:37.415Z,30.40
2018-05-24T15:19:05.659Z,30.50
2018-05-24T15:21:34.112Z,30.50
2018-05-24T15:24:01.591Z,30.10
2018-05-24T15:26:29.085Z,30.20
2018-05-24T15:28:57.333Z,30.20
2018-05-24T15:31:24.866Z,30.00
2018-05-24T15:33:52.354Z,29.90
2018-05-24T15:36:19.843Z,30.00
2018-05-24T15:38:48.090Z,29.60
2018-05-24T15:41:15.586Z,29.60
2018-05-24T15:43:43.917Z,29.40
2018-05-24T15:46:11.416Z,29.40
2018-05-24T15:48:38.920Z,29.70
2018-05-24T15:51:06.456Z,29.80
2018-05-24T15:53:34.713Z,29.60
2018-05-24T15:56:02.200Z,29.60
2018-05-24T15:58:29.773Z,29.50
2018-05-24T16:00:57.307Z,29.30
2018-05-24T16:03:25.586Z,29.50
2018-05-24T16:05:53.827Z,29.20
2018-05-24T16:08:21.313Z,29.20
2018-05-24T16:10:48.801Z,29.40
2018-05-24T16:13:16.301Z,29.20
2018-05-24T16:15:43.778Z,29.10
2018-05-24T16:18:11.347Z,29.00
2018-05-24T16:20:38.846Z,29.10
2018-05-24T16:23:06.804Z,29.60
2018-05-24T16:25:34.351Z,29.40
2018-05-24T16:28:02.597Z,29.90
2018-05-24T16:30:30.202Z,29.90
2018-05-24T16:32:57.753Z,30.10
2018-05-24T16:35:25.982Z,30.00
2018-05-24T16:37:53.467Z,30.00
2018-05-24T16:40:21.010Z,30.10
2018-05-24T16:42:48.591Z,30.80
2018-05-24T16:45:16.828Z,30.00
2018-05-24T16:47:44.312Z,30.00
2018-05-24T16:50:11.784Z,30.30
2018-05-24T16:52:39.275Z,30.50
2018-05-24T16:55:06.813Z,30.70
2018-05-24T16:57:34.367Z,30.80
2018-05-24T17:00:03.350Z,31.00
2018-05-24T17:02:30.925Z,31.00
2018-05-24T17:04:59.172Z,31.30
2018-05-24T17:07:26.690Z,31.30
2018-05-24T17:09:54.201Z,31.10
2018-05-24T17:12:21.689Z,30.40
2018-05-24T17:14:49.212Z,31.00
2018-05-24T17:17:16.703Z,31.20
2018-05-24T17:19:44.272Z,31.40
2018-05-24T17:22:12.520Z,31.30
2018-05-24T17:24:40.006Z,31.30
2018-05-24T17:27:08.302Z,31.40
2018-05-24T17:29:36.551Z,31.40
2018-05-24T17:32:04.027Z,31.40
2018-05-24T17:34:32.312Z,31.50
2018-05-24T17:37:00.555Z,31.60
2018-05-24T17:39:28.078Z,31.60
2018-05-24T17:41:55.551Z,31.50
2018-05-24T17:44:23.076Z,31.70
2018-05-24T17:46:50.612Z,32.00
2018-05-24T17:49:18.903Z,32.10
2018-05-24T17:51:47.162Z,32.00
2018-05-24T17:54:14.644Z,32.00
2018-05-24T17:56:42.899Z,32.20
2018-05-24T17:59:11.194Z,32.20
2018-05-24T18:01:39.441Z,32.50
2018-05-24T18:04:07.012Z,32.50
2018-05-24T18:06:34.487Z,32.50
2018-05-24T18:09:02.746Z,32.90
2018-05-24T18:11:30.225Z,32.80
2018-05-24T18:13:58.597Z,33.40
2018-05-24T18:16:26.848Z,33.50
2018-05-24T18:18:54.322Z,33.60
2018-05-24T18:21:21.957Z,33.70
2018-05-24T18:23:49.435Z,33.50
2018-05-24T18:26:16.942Z,33.70
2018-05-24T18:28:44.415Z,33.80
2018-05-24T18:31:11.905Z,33.90
2018-05-24T18:33:39.520Z,34.30
2018-05-24T18:36:07.030Z,34.40
2018-05-24T18:38:34.518Z,34.20
2018-05-24T18:41:02.789Z,34.40
2018-05-24T18:43:31.067Z,35.00
2018-05-24T18:45:59.352Z,34.60
2018-05-24T18:48:27.578Z,34.70
2018-05-24T18:50:55.076Z,34.60
2018-05-24T18:53:22.550Z,34.80
2018-05-24T18:55:50.822Z,34.90
2018-05-24T18:58:19.081Z,35.00
2018-05-24T19:00:46.650Z,35.00
2018-05-24T19:03:14.244Z,35.10
2018-05-24T19:05:41.780Z,35.30
2018-05-24T19:08:10.034Z,35.70
2018-05-24T19:10:37.508Z,35.60
2018-05-24T19:13:05.836Z,36.30
2018-05-24T19:15:33.358Z,36.30
2018-05-24T19:18:01.623Z,36.80
2018-05-24T19:20:29.129Z,36.70
2018-05-24T19:22:57.464Z,37.00
2018-05-24T19:25:25.899Z,37.30
2018-05-24T19:27:53.395Z,37.40
2018-05-24T19:30:22.504Z,37.70
2018-05-24T19:32:50.071Z,37.70
2018-05-24T19:35:19.325Z,38.00
2018-05-24T19:37:46.825Z,37.90
2018-05-24T19:40:14.320Z,38.10
2018-05-24T19:42:41.923Z,38.20
2018-05-24T19:45:09.578Z,38.40
2018-05-24T19:47:37.139Z,38.50
2018-05-24T19:50:04.631Z,38.70
2018-05-24T19:52:32.231Z,38.70
2018-05-24T19:55:00.063Z,38.90
2018-05-24T19:57:27.559Z,39.00
2018-05-24T19:59:55.116Z,39.20
2018-05-24T20:02:22.604Z,39.20
2018-05-24T20:04:50.151Z,39.40
2018-05-24T20:07:19.474Z,39.50
2018-05-24T20:09:47.010Z,40.30
2018-05-24T20:12:14.564Z,39.80
2018-05-24T20:14:42.830Z,39.90
2018-05-24T20:17:10.359Z,40.10
2018-05-24T20:19:38.916Z,40.40
2018-05-24T20:22:07.337Z,40.50
2018-05-24T20:24:35.962Z,40.70
2018-05-24T20:27:03.489Z,40.50
2018-05-24T20:29:31.746Z,41.00
2018-05-24T20:31:59.255Z,40.90
2018-05-24T20:34:26.750Z,41.10
2018-05-24T20:36:54.267Z,41.20
2018-05-24T20:39:21.828Z,41.40
2018-05-24T20:41:49.686Z,41.60
2018-05-24T20:44:17.954Z,41.80
2018-05-24T20:46:46.244Z,41.80
2018-05-24T20:49:14.564Z,42.00
2018-05-24T20:51:42.133Z,42.00
2018-05-24T20:54:10.598Z,42.30
2018-05-24T20:56:38.117Z,42.30
2018-05-24T20:59:06.495Z,42.70
2018-05-24T21:01:34.771Z,42.90
2018-05-24T21:04:03.094Z,43.00
2018-05-24T21:06:30.595Z,43.00
2018-05-24T21:08:58.117Z,43.20
2018-05-24T21:11:25.642Z,43.20
2018-05-24T21:13:53.946Z,43.50
2018-05-24T21:16:21.442Z,43.50
2018-05-24T21:18:48.971Z,43.60
2018-05-24T21:21:16.463Z,43.80
2018-05-24T21:23:44.023Z,44.00
2018-05-24T21:26:12.291Z,44.20
2018-05-24T21:28:39.827Z,44.20
2018-05-24T21:31:07.345Z,44.30
2018-05-24T21:33:35.665Z,44.70
2018-05-24T21:36:03.166Z,44.70
2018-05-24T21:38:30.686Z,44.80
2018-05-24T21:40:58.669Z,44.90
2018-05-24T21:43:26.201Z,45.00
2018-05-24T21:45:53.697Z,45.20
2018-05-24T21:48:22.103Z,45.50
2018-05-24T21:50:50.375Z,45.90
2018-05-24T21:53:17.979Z,45.80
2018-05-24T21:55:45.472Z,46.80
2018-05-24T21:58:12.994Z,46.20
2018-05-24T22:00:46.256Z,46.30
2018-05-24T22:03:13.821Z,46.50
2018-05-24T22:05:42.096Z,46.30
2018-05-24T22:08:09.607Z,46.50
2018-05-24T22:10:37.129Z,46.70
2018-05-24T22:13:05.387Z,46.90
2018-05-24T22:15:33.725Z,46.60
2018-05-24T22:18:01.277Z,47.00
2018-05-24T22:20:28.840Z,47.20
2018-05-24T22:22:56.408Z,47.30
2018-05-24T22:25:23.928Z,47.40
2018-05-24T22:27:52.210Z,47.60
2018-05-24T22:30:19.747Z,47.60
2018-05-24T22:32:48.021Z,47.70
2018-05-24T22:35:15.536Z,47.80
2018-05-24T22:37:43.030Z,47.80
2018-05-24T22:40:10.695Z,47.90
2018-05-24T22:42:38.158Z,47.90
2018-05-24T22:45:05.668Z,48.60
2018-05-24T22:47:33.226Z,48.10
2018-05-24T22:50:00.736Z,48.20
2018-05-24T22:52:28.339Z,48.20
2018-05-24T22:54:56.735Z,48.60
2018-05-24T22:57:24.250Z,48.50
2018-05-24T22:59:51.770Z,48.70
2018-05-24T23:02:19.307Z,48.70
2018-05-24T23:04:46.815Z,48.80
2018-05-24T23:07:14.308Z,48.90
2018-05-24T23:09:42.586Z,49.20
2018-05-24T23:12:10.840Z,49.40
2018-05-24T23:14:38.350Z,49.40
2018-05-24T23:17:05.855Z,49.40
2018-05-24T23:19:33.371Z,49.50
2018-05-24T23:22:00.902Z,49.60
2018-05-24T23:24:29.221Z,49.70
2018-05-24T23:26:56.750Z,49.70
2018-05-24T23:29:25.015Z,50.00
2018-05-24T23:31:53.312Z,50.60
2018-05-24T23:34:20.805Z,50.10
2018-05-24T23:36:48.334Z,50.30
2018-05-24T23:39:15.837Z,50.40
2018-05-24T23:41:43.354Z,50.50
2018-05-24T23:44:11.633Z,50.80
2018-05-24T23:46:39.145Z,50.80
2018-05-24T23:49:06.650Z,51.00
2018-05-24T23:51:35.042Z,51.30
2018-05-24T23:54:02.547Z,51.30
2018-05-24T23:56:30.148Z,51.50
2018-05-24T23:58:58.414Z,51.90
